Time,TemperatureF,DewpointF,PressureIn,WindDirection,WindDirectionDegrees,WindSpeedMPH,WindSpeedGustMPH,Humidity,HourlyPrecipIn,Conditions,Clouds,dailyrainin,SoftwareType,DateUTC
2013-05-21 00:00:00,47.6,46.8,29.99,West,281,0.0,0.0,97,0.00,,,0.00,Wunderground v.1.15,2013-05-21 04:00:00,
2013-05-21 00:10:00,47.7,46.9,29.99,West,281,0.0,0.0,97,0.00,,,0.00,Wunderground v.1.15,2013-05-21 04:10:00,
2013-05-21 00:20:00,47.7,46.9,29.99,West,280,0.0,0.0,97,0.00,,,0.00,Wunderground v.1.15,2013-05-21 04:20:00,
2013-05-21 00:30:00,47.6,46.8,30.00,West,280,0.0,0.0,97,0.00,,,0.00,Wunderground v.1.15,2013-05-21 04:30:00,
2013-05-21 00:40:00,47.6,46.8,30.00,West,280,0.0,0.0,97,0.00,,,0.00,Wunderground v.1.15,2013-05-21 04:40:00,
2013-05-21 00:50:00,47.6,46.8,29.99,West,281,0.0,0.0,97,0.00,,,0.00,Wunderground v.1.15,2013-05-21 04:50:00,
2013-05-21 01:00:00,47.4,46.6,30.00,West,281,0.0,0.0,97,0.00,,,0.00,Wunderground v.1.15,2013-05-21 05:00:00,
2013-05-21 01:10:00,47.3,46.5,30.00,West,281,0.0,0.0,97,0.00,,,0.00,Wunderground v.1.15,2013-05-21 05:10:00,
2013-05-21 01:20:00,47.0,46.2,30.00,West,281,0.0,0.0,97,0.00,,,0.00,Wunderground v.1.15,2013-05-21 05:20:00,
2013-05-21 01:30:00,46.3,45.5,30.00,West,281,0.0,0.0,97,0.00,,,0.00,Wunderground v.1.15,2013-05-21 05:30:00,
2013-05-21 01:40:00,46.2,45.4,30.00,West,281,0.0,0.0,97,0.00,,,0.00,Wunderground v.1.15,2013-05-21 05:40:00,
2013-05-21 01:50:00,45.9,45.1,30.00,West,281,0.0,0.0,97,0.00,,,0.00,Wunderground v.1.15,2013-05-21 05:50:00,
2013-05-21 02:00:00,45.7,44.9,29.99,West,281,0.0,0.0,97,0.00,,,0.00,Wunderground v.1.15,2013-05-21 06:00:00,
2013-05-21 02:10:00,45.6,44.8,29.99,West,281,0.0,0.0,97,0.00,,,0.00,Wunderground v.1.15,2013-05-21 06:10:00,
2013-05-21 02:20:00,45.5,44.7,29.99,West,281,0.0,0.0,97,0.00,,,0.00,Wunderground v.1.15,2013-05-21 06:20:00,
2013-05-21 02:30:00,45.4,44.6,29.99,West,281,0.0,0.0,97,0.00,,,0.00,Wunderground v.1.15,2013-05-21 06:30:00,
2013-05-21 02:50:00,45.7,44.9,29.99,West,281,0.0,0.0,97,0.00,,,0.00,Wunderground v.1.15,2013-05-21 06:50:00,
2013-05-21 03:00:00,45.9,45.1,29.99,West,280,0.0,0.0,97,0.00,,,0.00,Wunderground v.1.15,2013-05-21 07:00:00,
2013-05-21 03:10:00,45.7,44.9,29.99,West,281,0.0,0.0,97,0.00,,,0.00,Wunderground v.1.15,2013-05-21 07:10:00,
2013-05-21 03:20:00,45.5,44.7,29.99,West,280,0.0,0.0,97,0.00,,,0.00,Wunderground v.1.15,2013-05-21 07:20:00,
2013-05-21 03:30:00,45.5,44.7,29.99,West,281,0.0,0.0,97,0.00,,,0.00,Wunderground v.1.15,2013-05-21 07:30:00,
2013-05-21 03:40:00,45.6,44.8,29.99,West,281,0.0,0.0,97,0.00,,,0.00,Wunderground v.1.15,2013-05-21 07:40:00,
2013-05-21 03:50:00,45.6,44.8,29.99,West,281,0.0,0.0,97,0.00,,,0.00,Wunderground v.1.15,2013-05-21 07:50:00,
2013-05-21 04:00:00,45.6,44.8,29.99,West,281,0.0,0.0,97,0.00,,,0.00,Wunderground v.1.15,2013-05-21 08:00:00,
2013-05-21 04:10:00,45.5,44.7,29.99,West,281,0.0,0.0,97,0.00,,,0.00,Wunderground v.1.15,2013-05-21 08:10:00,
2013-05-21 04:20:00,45.4,44.6,29.99,West,281,0.0,0.0,97,0.00,,,0.00,Wunderground v.1.15,2013-05-21 08:20:00,
2013-05-21 04:30:00,45.3,44.5,29.99,West,281,0.0,0.0,97,0.00,,,0.00,Wunderground v.1.15,2013-05-21 08:30:00,
2013-05-21 04:40:00,45.4,44.6,29.98,West,281,0.0,0.0,97,0.00,,,0.00,Wunderground v.1.15,2013-05-21 08:40:00,
2013-05-21 04:50:00,45.5,44.7,29.98,West,281,0.0,0.0,97,0.00,,,0.00,Wunderground v.1.15,2013-05-21 08:50:00,
2013-05-21 05:00:00,45.5,44.7,29.99,West,281,0.0,0.0,97,0.00,,,0.00,Wunderground v.1.15,2013-05-21 09:00:00,
2013-05-21 05:10:00,45.4,44.6,29.99,West,281,0.0,0.0,97,0.00,,,0.00,Wunderground v.1.15,2013-05-21 09:10:00,
2013-05-21 05:20:00,45.4,44.6,29.99,West,281,0.0,0.0,97,0.00,,,0.00,Wunderground v.1.15,2013-05-21 09:20:00,
2013-05-21 05:30:00,45.4,44.6,29.99,West,280,0.0,0.0,97,0.00,,,0.00,Wunderground v.1.15,2013-05-21 09:30:00,
2013-05-21 05:40:00,45.5,44.7,30.00,West,280,0.0,0.0,97,0.00,,,0.00,Wunderground v.1.15,2013-05-21 09:40:00,
2013-05-21 05:50:00,45.5,44.7,30.00,West,281,0.0,0.0,97,0.00,,,0.00,Wunderground v.1.15,2013-05-21 09:50:00,
2013-05-21 06:00:00,45.6,45.1,30.00,West,281,0.0,0.0,98,0.00,,,0.01,Wunderground v.1.15,2013-05-21 10:00:00,
2013-05-21 06:10:00,45.6,45.1,30.00,West,281,0.0,0.0,98,0.00,,,0.01,Wunderground v.1.15,2013-05-21 10:10:00,
2013-05-21 06:20:00,45.8,45.3,30.00,West,280,0.0,0.0,98,0.00,,,0.01,Wunderground v.1.15,2013-05-21 10:20:00,
2013-05-21 06:30:00,45.8,45.3,30.00,West,281,0.0,0.0,98,0.00,,,0.01,Wunderground v.1.15,2013-05-21 10:30:00,
2013-05-21 06:40:00,45.7,45.2,30.00,West,280,0.0,0.0,98,0.00,,,0.01,Wunderground v.1.15,2013-05-21 10:40:00,
2013-05-21 06:50:00,45.6,45.1,30.00,SSE,157,0.0,0.0,98,0.00,,,0.01,Wunderground v.1.15,2013-05-21 10:50:00,
2013-05-21 07:00:00,45.6,45.1,30.00,SSE,157,0.0,0.0,98,0.00,,,0.01,Wunderground v.1.15,2013-05-21 11:00:00,
2013-05-21 07:10:00,45.6,45.1,30.00,SSE,157,0.0,0.0,98,0.00,,,0.01,Wunderground v.1.15,2013-05-21 11:10:00,
2013-05-21 07:20:00,45.8,45.3,30.00,SSE,157,0.0,0.0,98,0.00,,,0.01,Wunderground v.1.15,2013-05-21 11:20:00,
2013-05-21 07:30:00,45.8,45.3,30.00,SSE,157,0.0,0.0,98,0.00,,,0.01,Wunderground v.1.15,2013-05-21 11:30:00,
2013-05-21 07:40:00,46.0,45.2,30.00,SE,130,0.0,0.0,97,0.00,,,0.01,Wunderground v.1.15,2013-05-21 11:40:00,
2013-05-21 07:50:00,46.3,45.8,30.00,SE,130,0.0,0.0,98,0.00,,,0.01,Wunderground v.1.15,2013-05-21 11:50:00,
2013-05-21 08:00:00,46.7,46.2,30.01,SE,130,0.0,0.0,98,0.00,,,0.01,Wunderground v.1.15,2013-05-21 12:00:00,
2013-05-21 08:10:00,46.7,46.2,30.01,SE,130,0.0,0.0,98,0.00,,,0.01,Wunderground v.1.15,2013-05-21 12:10:00,
2013-05-21 08:20:00,46.8,46.3,30.02,SE,130,0.0,1.0,98,0.00,,,0.01,Wunderground v.1.15,2013-05-21 12:20:00,
2013-05-21 08:30:00,47.0,46.5,30.02,SE,130,0.0,0.0,98,0.00,,,0.01,Wunderground v.1.15,2013-05-21 12:30:00,
2013-05-21 08:40:00,47.2,46.7,30.02,SE,130,0.0,0.0,98,0.00,,,0.01,Wunderground v.1.15,2013-05-21 12:40:00,
2013-05-21 08:50:00,47.5,47.0,30.03,SE,130,0.0,0.0,98,0.00,,,0.01,Wunderground v.1.15,2013-05-21 12:50:00,
2013-05-21 09:00:00,47.5,47.0,30.03,SE,130,0.0,0.0,98,0.00,,,0.01,Wunderground v.1.15,2013-05-21 13:00:00,
2013-05-21 09:10:00,47.5,47.0,30.03,SE,130,0.0,0.0,98,0.00,,,0.01,Wunderground v.1.15,2013-05-21 13:10:00,
2013-05-21 09:20:00,47.9,47.4,30.03,North,9,1.0,1.0,98,0.00,,,0.01,Wunderground v.1.15,2013-05-21 13:20:00,
2013-05-21 09:30:00,48.2,47.7,30.04,North,9,0.0,0.0,98,0.00,,,0.01,Wunderground v.1.15,2013-05-21 13:30:00,
2013-05-21 09:40:00,48.0,47.5,30.04,North,9,1.0,3.0,98,0.00,,,0.01,Wunderground v.1.15,2013-05-21 13:40:00,
2013-05-21 09:50:00,48.4,47.9,30.04,North,360,1.0,2.0,98,0.00,,,0.01,Wunderground v.1.15,2013-05-21 13:50:00,
2013-05-21 10:00:00,48.6,48.1,30.04,NNE,19,1.0,1.0,98,0.00,,,0.01,Wunderground v.1.15,2013-05-21 14:00:00,
2013-05-21 10:10:00,49.0,48.5,30.03,NNE,19,0.0,0.0,98,0.00,,,0.01,Wunderground v.1.15,2013-05-21 14:10:00,
2013-05-21 10:20:00,49.2,48.7,30.04,NNE,19,0.0,0.0,98,0.00,,,0.01,Wunderground v.1.15,2013-05-21 14:20:00,
2013-05-21 10:30:00,49.7,49.2,30.03,NNE,19,0.0,0.0,98,0.00,,,0.01,Wunderground v.1.15,2013-05-21 14:30:00,
2013-05-21 10:40:00,50.0,49.5,30.04,NNE,19,0.0,3.0,98,0.00,,,0.01,Wunderground v.1.15,2013-05-21 14:40:00,
2013-05-21 10:50:00,49.9,49.4,30.03,NNE,12,1.0,1.0,98,0.00,,,0.01,Wunderground v.1.15,2013-05-21 14:50:00,
2013-05-21 11:00:00,50.1,49.6,30.03,NW,325,0.0,0.0,98,0.00,,,0.01,Wunderground v.1.15,2013-05-21 15:00:00,
2013-05-21 11:10:00,50.2,49.7,30.04,NW,325,0.0,4.0,98,0.00,,,0.01,Wunderground v.1.15,2013-05-21 15:10:00,
2013-05-21 11:20:00,50.1,49.6,30.04,NW,323,2.0,2.0,98,0.00,,,0.01,Wunderground v.1.15,2013-05-21 15:20:00,
2013-05-21 11:30:00,50.2,49.7,30.04,NW,325,1.0,1.0,98,0.00,,,0.01,Wunderground v.1.15,2013-05-21 15:30:00,
2013-05-21 11:40:00,50.3,49.8,30.04,NNW,338,1.0,1.0,98,0.00,,,0.01,Wunderground v.1.15,2013-05-21 15:40:00,
2013-05-21 11:50:00,50.3,49.5,30.04,NW,313,0.0,0.0,97,0.00,,,0.01,Wunderground v.1.15,2013-05-21 15:50:00,
2013-05-21 12:00:00,50.3,49.8,30.05,NW,314,1.0,1.0,98,0.00,,,0.01,Wunderground v.1.15,2013-05-21 16:00:00,
2013-05-21 12:10:00,50.3,49.5,30.05,NW,323,1.0,1.0,97,0.00,,,0.01,Wunderground v.1.15,2013-05-21 16:10:00,
2013-05-21 12:20:00,50.6,49.8,30.04,NW,323,0.0,0.0,97,0.00,,,0.01,Wunderground v.1.15,2013-05-21 16:20:00,
2013-05-21 12:30:00,51.0,50.5,30.03,NW,323,0.0,0.0,98,0.00,,,0.01,Wunderground v.1.15,2013-05-21 16:30:00,
2013-05-21 12:40:00,51.3,50.5,30.03,NW,323,0.0,0.0,97,0.00,,,0.01,Wunderground v.1.15,2013-05-21 16:40:00,
2013-05-21 12:50:00,51.8,51.0,30.03,NW,323,0.0,0.0,97,0.00,,,0.01,Wunderground v.1.15,2013-05-21 16:50:00,
2013-05-21 13:00:00,52.5,51.7,30.04,North,349,1.0,2.0,97,0.00,,,0.01,Wunderground v.1.15,2013-05-21 17:00:00,
2013-05-21 13:10:00,52.6,51.5,30.03,North,5,1.0,1.0,96,0.00,,,0.01,Wunderground v.1.15,2013-05-21 17:10:00,
2013-05-21 13:20:00,52.4,50.7,30.03,WNW,300,3.0,3.0,94,0.00,,,0.01,Wunderground v.1.15,2013-05-21 17:20:00,
2013-05-21 13:40:00,52.2,50.5,30.03,North,360,2.0,2.0,94,0.00,,,0.01,Wunderground v.1.15,2013-05-21 17:40:00,
2013-05-21 13:50:00,52.1,50.4,30.04,NNW,344,2.0,2.0,94,0.00,,,0.01,Wunderground v.1.15,2013-05-21 17:50:00,
2013-05-21 14:00:00,52.3,50.6,30.03,NNW,335,0.0,0.0,94,0.00,,,0.01,Wunderground v.1.15,2013-05-21 18:00:00,
2013-05-21 14:10:00,52.4,50.7,30.03,NNW,347,0.0,0.0,94,0.00,,,0.01,Wunderground v.1.15,2013-05-21 18:10:00,
2013-05-21 14:20:00,52.6,50.6,30.03,NNW,347,0.0,0.0,93,0.00,,,0.01,Wunderground v.1.15,2013-05-21 18:20:00,
2013-05-21 14:30:00,53.7,51.7,30.03,NNW,346,0.0,0.0,93,0.00,,,0.01,Wunderground v.1.15,2013-05-21 18:30:00,
2013-05-21 14:40:00,55.4,52.8,30.03,SW,223,0.0,0.0,91,0.00,,,0.01,Wunderground v.1.15,2013-05-21 18:40:00,
2013-05-21 14:50:00,56.6,52.5,30.03,WSW,251,2.0,4.0,86,0.00,,,0.01,Wunderground v.1.15,2013-05-21 18:50:00,
2013-05-21 15:00:00,57.4,52.9,30.03,SW,236,2.0,5.0,85,0.00,,,0.01,Wunderground v.1.15,2013-05-21 19:00:00,
2013-05-21 15:10:00,56.9,51.1,30.03,SW,220,1.0,1.0,81,0.00,,,0.01,Wunderground v.1.15,2013-05-21 19:10:00,
2013-05-21 15:20:00,56.8,51.0,30.03,SW,217,1.0,3.0,81,0.00,,,0.01,Wunderground v.1.15,2013-05-21 19:20:00,
2013-05-21 15:30:00,58.9,51.7,30.02,WSW,257,1.0,1.0,77,0.00,,,0.01,Wunderground v.1.15,2013-05-21 19:30:00,
2013-05-21 15:40:00,59.0,50.7,30.02,WSW,257,2.0,2.0,74,0.00,,,0.01,Wunderground v.1.15,2013-05-21 19:40:00,
2013-05-21 15:50:00,59.5,52.6,30.02,South,187,2.0,2.0,78,0.00,,,0.01,Wunderground v.1.15,2013-05-21 19:50:00,
2013-05-21 16:00:00,59.7,51.8,30.03,SW,230,3.0,3.0,75,0.00,,,0.01,Wunderground v.1.15,2013-05-21 20:00:00,
2013-05-21 16:10:00,59.3,50.6,30.02,SW,225,1.0,2.0,73,0.00,,,0.01,Wunderground v.1.15,2013-05-21 20:10:00,
2013-05-21 16:20:00,59.5,50.1,30.02,South,184,0.0,0.0,71,0.00,,,0.01,Wunderground v.1.15,2013-05-21 20:20:00,
2013-05-21 16:30:00,60.0,50.6,30.01,SW,218,0.0,0.0,71,0.00,,,0.01,Wunderground v.1.15,2013-05-21 20:30:00,
2013-05-21 16:40:00,61.0,50.8,30.01,South,173,0.0,0.0,69,0.00,,,0.01,Wunderground v.1.15,2013-05-21 20:40:00,
2013-05-21 16:50:00,61.6,50.5,30.01,South,182,0.0,0.0,67,0.00,,,0.01,Wunderground v.1.15,2013-05-21 20:50:00,
2013-05-21 17:00:00,61.3,49.4,30.01,SW,225,0.0,0.0,65,0.00,,,0.01,Wunderground v.1.15,2013-05-21 21:00:00,
2013-05-21 17:10:00,61.4,48.7,29.99,NW,315,0.0,0.0,63,0.00,,,0.01,Wunderground v.1.15,2013-05-21 21:10:00,
2013-05-21 17:20:00,61.7,46.8,29.99,WNW,286,2.0,2.0,58,0.00,,,0.01,Wunderground v.1.15,2013-05-21 21:20:00,
2013-05-21 17:30:00,61.9,47.4,29.99,North,360,2.0,2.0,59,0.00,,,0.01,Wunderground v.1.15,2013-05-21 21:30:00,
2013-05-21 17:40:00,62.3,47.3,29.99,North,360,0.0,0.0,58,0.00,,,0.01,Wunderground v.1.15,2013-05-21 21:40:00,
2013-05-21 17:50:00,61.8,46.9,29.99,NE,47,0.0,0.0,58,0.00,,,0.01,Wunderground v.1.15,2013-05-21 21:50:00,
2013-05-21 18:00:00,61.8,46.9,30.00,NE,46,0.0,0.0,58,0.00,,,0.01,Wunderground v.1.15,2013-05-21 22:00:00,
2013-05-21 18:10:00,62.2,46.8,30.00,NE,37,0.0,0.0,57,0.00,,,0.01,Wunderground v.1.15,2013-05-21 22:10:00,
2013-05-21 18:20:00,62.2,47.2,30.01,NE,37,0.0,0.0,58,0.00,,,0.01,Wunderground v.1.15,2013-05-21 22:20:00,
2013-05-21 18:30:00,61.4,47.8,30.01,NE,37,0.0,0.0,61,0.00,,,0.01,Wunderground v.1.15,2013-05-21 22:30:00,
2013-05-21 18:40:00,60.9,48.2,30.01,NE,37,0.0,0.0,63,0.00,,,0.01,Wunderground v.1.15,2013-05-21 22:40:00,
2013-05-21 18:50:00,60.1,47.9,30.02,NE,37,0.0,0.0,64,0.00,,,0.01,Wunderground v.1.15,2013-05-21 22:50:00,
2013-05-21 19:00:00,59.3,49.1,30.01,NE,37,0.0,0.0,69,0.00,,,0.01,Wunderground v.1.15,2013-05-21 23:00:00,
2013-05-21 19:10:00,58.8,49.0,30.02,NE,37,0.0,0.0,70,0.00,,,0.01,Wunderground v.1.15,2013-05-21 23:10:00,
2013-05-21 19:20:00,58.0,50.1,30.02,NE,37,0.0,0.0,75,0.00,,,0.01,Wunderground v.1.15,2013-05-21 23:20:00,
2013-05-21 19:30:00,57.2,48.6,30.02,NE,37,0.0,0.0,73,0.00,,,0.01,Wunderground v.1.15,2013-05-21 23:30:00,
2013-05-21 19:40:00,56.5,47.9,30.02,NE,37,0.0,0.0,73,0.00,,,0.01,Wunderground v.1.15,2013-05-21 23:40:00,
2013-05-21 19:50:00,55.9,48.8,30.02,NE,37,0.0,0.0,77,0.00,,,0.01,Wunderground v.1.15,2013-05-21 23:50:00,
2013-05-21 20:00:00,55.3,48.9,30.02,NE,37,0.0,0.0,79,0.00,,,0.01,Wunderground v.1.15,2013-05-22 00:00:00,
2013-05-21 20:10:00,54.0,48.6,30.02,NE,37,0.0,0.0,82,0.00,,,0.01,Wunderground v.1.15,2013-05-22 00:10:00,
2013-05-21 20:20:00,53.2,47.8,30.02,NE,37,0.0,0.0,82,0.00,,,0.01,Wunderground v.1.15,2013-05-22 00:20:00,
2013-05-21 20:30:00,53.2,47.8,30.02,NE,37,0.0,0.0,82,0.00,,,0.01,Wunderground v.1.15,2013-05-22 00:30:00,
2013-05-21 20:40:00,53.1,48.1,30.02,NE,37,0.0,0.0,83,0.00,,,0.01,Wunderground v.1.15,2013-05-22 00:40:00,
2013-05-21 20:50:00,52.9,48.2,30.03,NE,37,0.0,0.0,84,0.00,,,0.01,Wunderground v.1.15,2013-05-22 00:50:00,
2013-05-21 21:00:00,52.9,48.2,30.02,NE,37,0.0,0.0,84,0.00,,,0.01,Wunderground v.1.15,2013-05-22 01:00:00,
2013-05-21 21:10:00,52.4,48.0,30.02,NE,37,1.0,1.0,85,0.00,,,0.01,Wunderground v.1.15,2013-05-22 01:10:00,
2013-05-21 21:20:00,52.1,47.7,30.02,NE,37,0.0,0.0,85,0.00,,,0.01,Wunderground v.1.15,2013-05-22 01:20:00,
2013-05-21 21:30:00,52.1,47.7,30.01,NE,38,0.0,0.0,85,0.00,,,0.01,Wunderground v.1.15,2013-05-22 01:30:00,
2013-05-21 21:40:00,51.7,47.6,30.01,NE,37,0.0,0.0,86,0.00,,,0.01,Wunderground v.1.15,2013-05-22 01:40:00,
2013-05-21 21:50:00,51.4,47.7,30.01,NE,37,0.0,0.0,87,0.00,,,0.01,Wunderground v.1.15,2013-05-22 01:50:00,
2013-05-21 22:00:00,50.5,47.1,30.01,NE,37,0.0,0.0,88,0.00,,,0.01,Wunderground v.1.15,2013-05-22 02:00:00,
2013-05-21 22:10:00,49.9,46.8,30.01,NE,37,0.0,0.0,89,0.00,,,0.01,Wunderground v.1.15,2013-05-22 02:10:00,
2013-05-21 22:20:00,49.6,46.8,30.01,NE,37,0.0,0.0,90,0.00,,,0.01,Wunderground v.1.15,2013-05-22 02:20:00,
2013-05-21 22:30:00,49.4,46.9,30.01,NE,37,0.0,0.0,91,0.00,,,0.01,Wunderground v.1.15,2013-05-22 02:30:00,
2013-05-21 22:40:00,49.1,46.9,30.00,NE,37,0.0,0.0,92,0.00,,,0.01,Wunderground v.1.15,2013-05-22 02:40:00,
2013-05-21 22:50:00,49.3,47.4,30.00,NE,38,0.0,0.0,93,0.00,,,0.01,Wunderground v.1.15,2013-05-22 02:50:00,
2013-05-21 23:00:00,49.4,47.5,30.00,NE,38,0.0,0.0,93,0.00,,,0.01,Wunderground v.1.15,2013-05-22 03:00:00,
2013-05-21 23:10:00,49.2,47.3,30.00,NE,37,0.0,0.0,93,0.00,,,0.01,Wunderground v.1.15,2013-05-22 03:10:00,
2013-05-21 23:20:00,48.7,46.8,30.00,NE,37,0.0,0.0,93,0.00,,,0.01,Wunderground v.1.15,2013-05-22 03:20:00,
2013-05-21 23:30:00,48.5,46.9,30.00,NE,37,0.0,0.0,94,0.00,,,0.01,Wunderground v.1.15,2013-05-22 03:30:00,
2013-05-21 23:40:00,48.5,46.9,30.00,NE,37,0.0,0.0,94,0.00,,,0.01,Wunderground v.1.15,2013-05-22 03:40:00,
2013-05-21 23:50:00,48.5,46.9,30.00,NE,37,0.0,0.0,94,0.00,,,0.01,Wunderground v.1.15,2013-05-22 03:50:00,